createdAt,value
2023-02-08T00:00:59.261Z,12.55
2023-02-08T00:03:29.197Z,13.10
2023-02-08T00:05:56.514Z,13.10
2023-02-08T00:08:23.665Z,13.82
2023-02-08T00:10:51.418Z,13.70
2023-02-08T00:13:18.604Z,13.38
2023-02-08T00:15:46.989Z,12.50
2023-02-08T00:18:14.584Z,13.07
2023-02-08T00:20:44.858Z,13.45
2023-02-08T00:23:14.136Z,11.23
2023-02-08T00:25:41.940Z,15.70
2023-02-08T00:28:14.211Z,12.13
2023-02-08T00:30:42.636Z,11.65
2023-02-08T00:33:10.688Z,12.48
2023-02-08T00:35:37.936Z,13.50
2023-02-08T00:38:05.269Z,11.70
2023-02-08T00:40:32.296Z,12.40
2023-02-08T00:42:59.609Z,14.18
2023-02-08T00:45:26.808Z,12.80
2023-02-08T00:47:54.144Z,13.45
2023-02-08T00:50:21.429Z,13.65
2023-02-08T00:52:48.691Z,11.00
2023-02-08T00:55:15.931Z,12.45
2023-02-08T00:57:43.227Z,12.80
2023-02-08T01:00:11.405Z,15.35
2023-02-08T01:02:39.539Z,13.32
2023-02-08T01:05:07.422Z,13.73
2023-02-08T01:07:37.891Z,14.50
2023-02-08T01:10:14.257Z,15.15
2023-02-08T01:12:41.522Z,13.70
2023-02-08T01:15:09.328Z,13.75
2023-02-08T01:17:36.755Z,14.20
2023-02-08T01:20:04.495Z,14.15
2023-02-08T01:22:31.712Z,14.45
2023-02-08T01:24:59.143Z,15.00
2023-02-08T01:27:26.417Z,14.80
2023-02-08T01:29:53.786Z,14.98
2023-02-08T01:32:21.167Z,15.20
2023-02-08T01:34:50.668Z,15.15
2023-02-08T01:37:17.819Z,14.77
2023-02-08T01:39:44.991Z,15.45
2023-02-08T01:42:16.251Z,13.45
2023-02-08T01:45:21.474Z,13.07
2023-02-08T01:47:53.583Z,13.57
2023-02-08T01:50:23.787Z,12.65
2023-02-08T01:52:51.953Z,14.60
2023-02-08T01:55:29.262Z,14.55
2023-02-08T01:58:00.332Z,16.23
2023-02-08T02:00:27.972Z,17.92
2023-02-08T02:02:57.272Z,15.63
2023-02-08T02:05:28.927Z,12.88
2023-02-08T02:07:59.027Z,14.07
2023-02-08T02:10:30.036Z,15.90
2023-02-08T02:13:02.714Z,14.38
2023-02-08T02:15:29.909Z,15.85
2023-02-08T02:17:59.884Z,16.85
2023-02-08T02:20:42.745Z,17.42
2023-02-08T02:23:41.444Z,14.02
2023-02-08T02:26:28.588Z,14.77
2023-02-08T02:29:26.231Z,13.38
2023-02-08T02:32:24.497Z,15.13
2023-02-08T02:35:06.308Z,15.07
2023-02-08T02:37:58.001Z,15.43
2023-02-08T02:40:52.237Z,13.45
2023-02-08T02:43:42.866Z,13.85
2023-02-08T02:46:25.034Z,16.90
2023-02-08T02:49:24.551Z,14.48
2023-02-08T02:52:14.877Z,17.65
2023-02-08T02:54:53.296Z,15.55
2023-02-08T02:57:27.293Z,14.95
2023-02-08T02:59:54.716Z,15.03
2023-02-08T03:02:22.341Z,14.32
2023-02-08T03:04:55.872Z,16.42
2023-02-08T03:07:52.960Z,15.27
2023-02-08T03:11:11.372Z,16.48
2023-02-08T03:14:10.168Z,17.27
2023-02-08T03:17:09.453Z,15.20
2023-02-08T03:19:48.230Z,15.73
2023-02-08T03:22:22.606Z,17.25
2023-02-08T03:24:58.252Z,17.73
2023-02-08T03:27:29.087Z,19.27
2023-02-08T03:30:00.864Z,18.23
2023-02-08T03:32:33.013Z,17.75
2023-02-08T03:35:06.783Z,20.73
2023-02-08T03:37:38.879Z,17.70
2023-02-08T03:40:23.735Z,18.00
2023-02-08T03:42:54.280Z,18.35
2023-02-08T03:45:26.964Z,19.20
2023-02-08T03:47:57.672Z,18.50
2023-02-08T03:50:25.406Z,18.70
2023-02-08T03:52:53.999Z,17.48
2023-02-08T03:55:31.666Z,17.10
2023-02-08T03:58:17.524Z,20.65
2023-02-08T04:00:52.474Z,20.35
2023-02-08T04:05:57.253Z,16.70
2023-02-08T04:08:24.766Z,17.25
2023-02-08T04:10:52.163Z,18.50
2023-02-08T04:13:19.364Z,17.70
2023-02-08T04:15:46.556Z,18.35
2023-02-08T04:18:14.602Z,18.05
2023-02-08T04:20:44.691Z,17.52
2023-02-08T04:23:11.947Z,17.58
2023-02-08T04:25:39.296Z,18.80
2023-02-08T04:28:06.754Z,18.02
2023-02-08T04:30:34.089Z,17.48
2023-02-08T04:33:01.477Z,18.05
2023-02-08T04:35:28.988Z,17.92
2023-02-08T04:37:56.029Z,16.67
2023-02-08T04:40:23.560Z,17.77
2023-02-08T04:42:50.908Z,15.88
2023-02-08T04:45:18.489Z,18.52
2023-02-08T04:47:45.851Z,18.73
2023-02-08T04:50:13.028Z,17.23
2023-02-08T04:52:40.135Z,20.58
2023-02-08T04:55:08.100Z,19.60
2023-02-08T04:57:35.257Z,19.08
2023-02-08T05:00:02.698Z,20.58
2023-02-08T05:02:30.201Z,19.48
2023-02-08T05:04:57.481Z,20.33
2023-02-08T05:07:25.602Z,18.58
2023-02-08T05:09:52.808Z,18.50
2023-02-08T05:12:20.103Z,20.58
2023-02-08T05:14:47.432Z,19.05
2023-02-08T05:17:14.723Z,20.20
2023-02-08T05:19:42.079Z,19.42
2023-02-08T05:22:12.208Z,18.58
2023-02-08T05:24:39.385Z,21.35
2023-02-08T05:27:06.693Z,19.67
2023-02-08T05:29:34.040Z,20.58
2023-02-08T05:32:01.221Z,19.70
2023-02-08T05:34:28.712Z,20.95
2023-02-08T05:36:55.926Z,18.90
2023-02-08T05:39:23.302Z,20.05
2023-02-08T05:41:50.420Z,19.58
2023-02-08T05:44:17.740Z,20.27
2023-02-08T05:46:45.188Z,19.15
2023-02-08T05:49:12.568Z,21.95
2023-02-08T05:51:39.775Z,19.33
2023-02-08T05:54:07.045Z,20.55
2023-02-08T05:56:35.009Z,20.35
2023-02-08T05:59:02.748Z,19.60
2023-02-08T06:01:30.128Z,20.48
2023-02-08T06:04:00.784Z,19.13
2023-02-08T06:06:28.650Z,22.77
2023-02-08T06:08:55.856Z,21.30
2023-02-08T06:11:23.035Z,22.92
2023-02-08T06:13:50.364Z,20.35
2023-02-08T06:16:19.890Z,24.58
2023-02-08T06:18:47.408Z,22.67
2023-02-08T06:21:14.663Z,22.13
2023-02-08T06:23:42.749Z,22.02
2023-02-08T06:26:10.159Z,20.20
2023-02-08T06:28:37.341Z,19.55
2023-02-08T06:31:04.766Z,25.27
2023-02-08T06:33:31.864Z,24.42
2023-02-08T06:35:59.026Z,22.17
2023-02-08T06:38:27.732Z,24.25
2023-02-08T06:40:55.035Z,22.98
2023-02-08T06:43:22.200Z,25.80
2023-02-08T06:45:49.518Z,23.80
2023-02-08T06:48:16.982Z,27.70
2023-02-08T06:50:44.520Z,24.02
2023-02-08T06:53:12.081Z,27.52
2023-02-08T06:55:39.775Z,25.02
2023-02-08T06:58:07.096Z,25.05
2023-02-08T07:00:34.334Z,24.85
2023-02-08T07:03:01.544Z,24.60
2023-02-08T07:05:34.277Z,26.88
2023-02-08T07:08:01.739Z,23.80
2023-02-08T07:10:28.999Z,26.40
2023-02-08T07:12:56.337Z,27.33
2023-02-08T07:15:23.508Z,24.67
2023-02-08T07:19:30.325Z,24.50
2023-02-08T07:21:59.588Z,25.58
2023-02-08T07:24:26.906Z,25.48
2023-02-08T07:26:54.021Z,25.83
2023-02-08T07:29:21.926Z,24.60
2023-02-08T07:31:49.233Z,26.30
2023-02-08T07:34:22.062Z,25.70
2023-02-08T07:36:52.359Z,26.98
2023-02-08T07:39:19.736Z,28.55
2023-02-08T07:41:47.775Z,28.10
2023-02-08T07:44:15.210Z,27.80
2023-02-08T07:46:42.568Z,27.90
2023-02-08T07:49:10.532Z,27.48
2023-02-08T07:55:46.144Z,23.52
2023-02-08T07:58:16.088Z,25.25
2023-02-08T08:00:44.381Z,24.30
2023-02-08T08:03:11.670Z,27.13
2023-02-08T08:05:41.920Z,24.52
2023-02-08T08:08:13.037Z,22.98
2023-02-08T08:10:43.699Z,23.25
2023-02-08T08:13:11.197Z,21.38
2023-02-08T08:15:39.015Z,27.88
2023-02-08T08:18:06.422Z,25.15
2023-02-08T08:20:33.747Z,22.95
2023-02-08T08:23:01.817Z,22.15
2023-02-08T08:25:29.168Z,22.55
2023-02-08T08:27:57.012Z,23.85
2023-02-08T08:30:24.502Z,27.52
2023-02-08T08:32:51.791Z,22.65
2023-02-08T08:35:19.259Z,21.48
2023-02-08T08:37:46.645Z,24.13
2023-02-08T08:40:13.908Z,24.60
2023-02-08T08:42:41.233Z,21.77
2023-02-08T08:45:09.185Z,23.05
2023-02-08T08:47:39.291Z,23.42
2023-02-08T08:50:07.117Z,23.20
2023-02-08T08:52:34.361Z,25.20
2023-02-08T08:55:01.743Z,22.67
2023-02-08T08:57:32.552Z,22.27
2023-02-08T09:00:00.045Z,23.23
2023-02-08T09:02:27.510Z,24.25
2023-02-08T09:04:54.864Z,21.17
2023-02-08T09:07:22.148Z,22.20
2023-02-08T09:09:50.142Z,23.15
2023-02-08T09:12:17.566Z,21.65
2023-02-08T09:14:50.061Z,20.25
2023-02-08T09:17:17.204Z,22.73
2023-02-08T09:19:44.549Z,22.90
2023-02-08T09:22:11.848Z,21.75
2023-02-08T09:24:39.125Z,23.45
2023-02-08T09:27:06.552Z,22.50
2023-02-08T09:29:34.534Z,21.85
2023-02-08T09:32:02.035Z,21.88
2023-02-08T09:34:29.370Z,21.52
2023-02-08T09:36:57.110Z,21.70
2023-02-08T09:39:25.820Z,23.30
2023-02-08T09:42:22.320Z,21.85
2023-02-08T09:45:07.691Z,19.60
2023-02-08T09:50:46.882Z,19.23
2023-02-08T09:53:34.574Z,21.77
2023-02-08T09:56:14.015Z,21.75
2023-02-08T09:58:45.091Z,19.20
2023-02-08T10:01:34.304Z,21.02
2023-02-08T10:04:08.215Z,20.63
2023-02-08T10:06:35.732Z,20.55
2023-02-08T10:09:06.733Z,21.23
2023-02-08T10:11:59.095Z,19.67
2023-02-08T10:14:57.078Z,21.55
2023-02-08T10:17:27.475Z,18.58
2023-02-08T10:20:03.969Z,20.88
2023-02-08T10:23:14.070Z,20.95
2023-02-08T10:25:59.422Z,21.90
2023-02-08T10:28:46.356Z,22.95
2023-02-08T10:31:38.158Z,21.63
2023-02-08T10:34:33.760Z,21.25
2023-02-08T10:37:06.365Z,20.13
2023-02-08T10:39:35.928Z,20.33
2023-02-08T10:42:05.173Z,20.00
2023-02-08T10:44:55.796Z,20.15
2023-02-08T10:47:46.304Z,19.33
2023-02-08T10:50:13.470Z,18.73
2023-02-08T10:52:40.965Z,19.15
2023-02-08T10:55:16.322Z,19.42
2023-02-08T10:57:45.563Z,20.90
2023-02-08T11:00:22.569Z,18.02
2023-02-08T11:02:53.182Z,16.02
2023-02-08T11:05:26.339Z,16.98
2023-02-08T11:08:20.963Z,16.88
2023-02-08T11:11:03.087Z,16.48
2023-02-08T11:13:44.502Z,14.85
2023-02-08T11:16:20.733Z,16.23
2023-02-08T11:18:53.629Z,14.52
2023-02-08T11:21:36.789Z,15.43
2023-02-08T11:24:16.204Z,17.25
2023-02-08T11:26:44.217Z,14.65
2023-02-08T11:29:23.416Z,15.43
2023-02-08T11:32:03.047Z,14.43
2023-02-08T11:34:39.407Z,14.80
2023-02-08T11:37:32.855Z,13.30
2023-02-08T11:40:01.339Z,15.02
2023-02-08T11:42:34.959Z,16.17
2023-02-08T11:45:02.438Z,14.77
2023-02-08T11:47:37.668Z,16.23
2023-02-08T11:52:39.487Z,19.60
2023-02-08T11:55:18.840Z,16.02
2023-02-08T11:58:24.506Z,16.65
2023-02-08T12:01:17.067Z,15.07
2023-02-08T12:03:47.526Z,15.60
2023-02-08T12:06:30.123Z,14.95
2023-02-08T12:09:05.784Z,15.90
2023-02-08T12:12:04.792Z,14.70
2023-02-08T12:14:42.199Z,15.50
2023-02-08T12:17:30.694Z,14.50
2023-02-08T12:20:16.452Z,13.75
2023-02-08T12:23:05.482Z,14.30
2023-02-08T12:25:49.599Z,16.45
2023-02-08T12:29:03.792Z,15.15
2023-02-08T12:31:58.788Z,15.38
2023-02-08T12:35:08.975Z,14.55
2023-02-08T12:38:10.301Z,14.85
2023-02-08T12:41:02.217Z,15.65
2023-02-08T12:43:54.589Z,14.18
2023-02-08T12:46:27.931Z,14.85
2023-02-08T12:49:04.462Z,14.68
2023-02-08T12:51:47.233Z,15.75
2023-02-08T12:54:27.249Z,15.48
2023-02-08T12:57:02.332Z,14.77
2023-02-08T12:59:39.434Z,14.80
2023-02-08T13:02:34.726Z,14.07
2023-02-08T13:05:06.968Z,14.25
2023-02-08T13:07:40.416Z,14.90
2023-02-08T13:10:36.759Z,13.75
2023-02-08T13:13:30.648Z,14.40
2023-02-08T13:16:10.360Z,12.90
2023-02-08T13:18:46.516Z,14.05
2023-02-08T13:21:41.407Z,15.43
2023-02-08T13:24:27.560Z,15.45
2023-02-08T13:26:55.371Z,13.90
2023-02-08T13:29:33.462Z,13.82
2023-02-08T13:32:07.334Z,13.27
2023-02-08T13:34:41.609Z,13.10
2023-02-08T13:37:27.132Z,13.47
2023-02-08T13:40:17.957Z,13.35
2023-02-08T13:42:52.171Z,14.48
2023-02-08T13:45:42.677Z,12.33
2023-02-08T13:48:13.945Z,12.10
2023-02-08T13:51:02.796Z,16.08
2023-02-08T13:53:39.376Z,13.75
2023-02-08T13:56:11.411Z,13.85
2023-02-08T13:58:51.169Z,14.10
2023-02-08T14:01:24.788Z,14.73
2023-02-08T14:04:10.426Z,14.95
2023-02-08T14:09:14.340Z,11.80
2023-02-08T14:11:49.933Z,14.73
2023-02-08T14:14:30.955Z,13.13
2023-02-08T14:17:24.514Z,13.60
2023-02-08T14:20:06.542Z,13.90
2023-02-08T14:22:51.096Z,13.98
2023-02-08T14:25:25.379Z,13.40
2023-02-08T14:28:00.478Z,14.47
2023-02-08T14:33:13.374Z,15.32
2023-02-08T14:35:50.236Z,14.65
2023-02-08T14:38:20.525Z,15.88
2023-02-08T14:40:50.052Z,15.63
2023-02-08T14:43:20.276Z,17.23
2023-02-08T14:45:52.598Z,16.15
2023-02-08T14:48:49.267Z,15.68
2023-02-08T14:51:22.657Z,15.05
2023-02-08T14:53:59.242Z,15.77
2023-02-08T14:56:38.013Z,16.52
2023-02-08T14:59:21.374Z,16.38
2023-02-08T15:01:53.777Z,15.25
2023-02-08T15:04:21.885Z,14.02
2023-02-08T15:07:10.457Z,14.65
2023-02-08T15:09:41.950Z,15.20
2023-02-08T15:12:34.680Z,15.73
2023-02-08T15:15:04.623Z,15.48
2023-02-08T15:17:36.327Z,15.13
2023-02-08T15:20:16.247Z,15.30
2023-02-08T15:22:43.483Z,15.75
2023-02-08T15:25:30.369Z,15.95
2023-02-08T15:28:17.749Z,15.77
2023-02-08T15:30:45.745Z,15.43
2023-02-08T15:33:18.199Z,16.52
2023-02-08T15:35:46.401Z,14.68
2023-02-08T15:38:19.451Z,15.52
2023-02-08T15:41:12.364Z,14.73
2023-02-08T15:43:41.384Z,17.73
2023-02-08T15:46:26.294Z,19.02
2023-02-08T15:48:54.934Z,21.55
2023-02-08T15:51:24.609Z,18.05
2023-02-08T15:53:55.188Z,16.15
2023-02-08T15:56:38.069Z,17.40
2023-02-08T15:59:08.581Z,15.55
2023-02-08T16:01:35.937Z,15.18
2023-02-08T16:04:12.769Z,15.27
2023-02-08T16:06:48.288Z,16.42
2023-02-08T16:09:22.205Z,15.52
2023-02-08T16:11:50.465Z,15.75
2023-02-08T16:14:27.043Z,16.48
2023-02-08T16:17:00.404Z,16.30
2023-02-08T16:19:32.551Z,14.50
2023-02-08T16:22:26.163Z,14.63
2023-02-08T16:24:53.646Z,15.05
2023-02-08T16:27:31.493Z,17.55
2023-02-08T16:30:00.001Z,15.55
2023-02-08T16:32:39.697Z,18.75
2023-02-08T16:35:33.958Z,17.83
2023-02-08T16:38:06.428Z,16.30
2023-02-08T16:40:51.717Z,17.15
2023-02-08T16:43:35.328Z,17.92
2023-02-08T16:46:11.665Z,19.42
2023-02-08T16:48:41.439Z,19.77
2023-02-08T16:51:18.383Z,20.27
2023-02-08T16:53:47.879Z,21.02
2023-02-08T16:56:15.346Z,18.10
2023-02-08T16:58:42.789Z,19.38
2023-02-08T17:01:13.656Z,19.60
2023-02-08T17:03:42.140Z,20.40
2023-02-08T17:06:21.985Z,17.42
2023-02-08T17:08:49.431Z,19.15
2023-02-08T17:11:16.794Z,18.20
2023-02-08T17:13:44.141Z,20.60
2023-02-08T17:16:19.368Z,19.58
2023-02-08T17:18:48.117Z,18.60
2023-02-08T17:21:15.724Z,25.83
2023-02-08T17:23:43.617Z,22.67
2023-02-08T17:26:29.300Z,20.33
2023-02-08T17:28:57.984Z,20.95
2023-02-08T17:31:26.627Z,20.50
2023-02-08T17:33:54.000Z,21.10
2023-02-08T17:36:21.503Z,20.13
2023-02-08T17:38:48.942Z,20.48
2023-02-08T17:41:19.274Z,19.05
2023-02-08T17:43:51.626Z,19.23
2023-02-08T17:46:24.969Z,19.17
2023-02-08T17:48:53.071Z,17.58
2023-02-08T17:51:24.752Z,18.33
2023-02-08T17:53:52.626Z,21.73
2023-02-08T17:56:24.016Z,20.67
2023-02-08T17:58:54.058Z,21.30
2023-02-08T18:01:26.301Z,17.67
2023-02-08T18:03:54.203Z,22.70
2023-02-08T18:06:23.398Z,20.45
2023-02-08T18:08:51.349Z,18.92
2023-02-08T18:11:24.211Z,18.52
2023-02-08T18:13:54.473Z,19.23
2023-02-08T18:16:27.139Z,19.90
2023-02-08T18:18:59.682Z,21.75
2023-02-08T18:21:33.342Z,22.85
2023-02-08T18:24:04.921Z,21.35
2023-02-08T18:26:34.715Z,19.65
2023-02-08T18:29:05.684Z,22.70
2023-02-08T18:31:33.317Z,21.50
2023-02-08T18:34:01.848Z,19.52
2023-02-08T18:36:30.382Z,21.52
2023-02-08T18:38:57.930Z,18.73
2023-02-08T18:41:28.620Z,21.02
2023-02-08T18:43:57.574Z,21.75
2023-02-08T18:46:27.730Z,20.23
2023-02-08T18:48:55.388Z,20.70
2023-02-08T18:51:24.515Z,21.73
2023-02-08T18:53:53.925Z,21.15
2023-02-08T18:56:24.451Z,20.10
2023-02-08T18:58:53.206Z,24.38
2023-02-08T19:01:24.899Z,19.73
2023-02-08T19:03:53.978Z,19.00
2023-02-08T19:06:24.936Z,19.33
2023-02-08T19:08:55.245Z,19.58
2023-02-08T19:11:25.775Z,21.98
2023-02-08T19:13:57.302Z,23.30
2023-02-08T19:16:25.195Z,22.58
2023-02-08T19:18:56.823Z,18.98
2023-02-08T19:21:24.607Z,18.40
2023-02-08T19:23:52.968Z,20.30
2023-02-08T19:26:22.534Z,21.77
2023-02-08T19:28:50.745Z,21.88
2023-02-08T19:31:21.790Z,22.48
2023-02-08T19:33:53.883Z,19.60
2023-02-08T19:36:25.008Z,23.73
2023-02-08T19:38:54.283Z,22.02
2023-02-08T19:41:24.480Z,21.02
2023-02-08T19:43:52.680Z,20.42
2023-02-08T19:46:22.850Z,20.63
2023-02-08T19:48:51.102Z,22.45
2023-02-08T19:51:19.802Z,23.05
2023-02-08T19:53:47.693Z,20.83
2023-02-08T19:56:19.775Z,20.75
2023-02-08T19:58:47.700Z,22.00
2023-02-08T20:01:18.977Z,21.48
2023-02-08T20:03:47.780Z,25.08
2023-02-08T20:06:18.760Z,21.85
2023-02-08T20:08:51.994Z,22.80
2023-02-08T20:11:26.154Z,22.92
2023-02-08T20:13:55.382Z,22.43
2023-02-08T20:16:24.213Z,32.67
2023-02-08T20:18:51.860Z,61.47
2023-02-08T20:21:19.857Z,56.70
2023-02-08T20:23:49.988Z,38.85
2023-02-08T20:26:19.529Z,32.78
2023-02-08T20:28:51.599Z,27.27
2023-02-08T20:31:22.360Z,24.98
2023-02-08T20:33:51.433Z,25.42
2023-02-08T20:36:25.941Z,27.58
2023-02-08T20:38:56.201Z,25.27
2023-02-08T20:41:25.689Z,22.40
2023-02-08T20:43:53.791Z,25.70
2023-02-08T20:46:30.735Z,22.38
2023-02-08T20:48:59.785Z,22.70
2023-02-08T20:51:28.077Z,26.67
2023-02-08T20:54:02.794Z,27.85
2023-02-08T20:56:35.915Z,24.05
2023-02-08T20:59:06.722Z,25.85
2023-02-08T21:01:35.314Z,25.95
2023-02-08T21:04:03.391Z,23.98
2023-02-08T21:06:35.049Z,24.92
2023-02-08T21:09:14.861Z,25.77
2023-02-08T21:11:46.187Z,23.23
2023-02-08T21:14:19.003Z,23.95
2023-02-08T21:16:48.608Z,23.45
2023-02-08T21:19:17.488Z,28.42
2023-02-08T21:21:44.872Z,24.80
2023-02-08T21:24:12.240Z,25.17
2023-02-08T21:26:39.529Z,25.23
2023-02-08T21:29:07.024Z,24.17
2023-02-08T21:31:36.991Z,24.48
2023-02-08T21:34:05.762Z,25.38
2023-02-08T21:36:34.011Z,27.40
2023-02-08T21:39:01.339Z,25.38
2023-02-08T21:41:30.988Z,24.38
2023-02-08T21:43:59.776Z,23.40
2023-02-08T21:46:31.378Z,26.58
2023-02-08T21:49:17.678Z,26.15
2023-02-08T21:52:03.851Z,26.40
2023-02-08T21:54:42.402Z,25.42
2023-02-08T21:57:14.305Z,25.08
2023-02-08T21:59:41.836Z,26.00
2023-02-08T22:02:14.981Z,25.75
2023-02-08T22:05:01.132Z,28.23
2023-02-08T22:07:29.433Z,25.98
2023-02-08T22:09:56.924Z,26.50
2023-02-08T22:12:24.545Z,27.48
2023-02-08T22:14:51.836Z,28.73
2023-02-08T22:17:19.429Z,29.90
2023-02-08T22:19:47.084Z,27.40
2023-02-08T22:22:14.155Z,30.65
2023-02-08T22:24:41.975Z,27.05
2023-02-08T22:27:09.895Z,27.05
2023-02-08T22:29:37.184Z,26.83
2023-02-08T22:32:10.108Z,29.55
2023-02-08T22:34:38.691Z,29.92
2023-02-08T22:37:06.006Z,28.90
2023-02-08T22:39:34.487Z,28.75
2023-02-08T22:42:03.727Z,26.58
2023-02-08T22:44:30.966Z,29.58
2023-02-08T22:46:58.259Z,28.33
2023-02-08T22:49:25.515Z,30.08
2023-02-08T22:51:52.762Z,25.98
2023-02-08T22:54:20.157Z,30.58
2023-02-08T22:56:47.258Z,32.25
2023-02-08T22:59:14.543Z,31.33
2023-02-08T23:01:41.988Z,30.13
2023-02-08T23:04:09.417Z,29.35
2023-02-08T23:06:36.776Z,28.13
2023-02-08T23:09:05.581Z,31.17
2023-02-08T23:11:33.477Z,33.92
2023-02-08T23:14:00.873Z,30.60
2023-02-08T23:16:28.432Z,27.40
2023-02-08T23:18:55.775Z,28.83
2023-02-08T23:21:23.042Z,31.30
2023-02-08T23:23:50.603Z,29.90
2023-02-08T23:26:21.118Z,29.98
2023-02-08T23:28:51.295Z,32.38
2023-02-08T23:31:19.424Z,30.38
2023-02-08T23:33:46.933Z,30.65
2023-02-08T23:36:19.772Z,32.90
2023-02-08T23:38:47.505Z,29.67
2023-02-08T23:41:21.008Z,29.67
2023-02-08T23:43:49.932Z,30.55
2023-02-08T23:46:23.393Z,31.08
2023-02-08T23:48:51.458Z,31.40
2023-02-08T23:51:24.399Z,31.80
2023-02-08T23:53:53.408Z,31.00
2023-02-08T23:56:25.221Z,30.10
2023-02-08T23:58:55.418Z,30.23
